createdAt,value
2023-05-22T00:01:56.475Z,44.42
2023-05-22T00:04:41.354Z,44.88
2023-05-22T00:07:11.229Z,48.47
2023-05-22T00:09:52.636Z,44.63
2023-05-22T00:12:26.433Z,44.67
2023-05-22T00:15:10.629Z,47.33
2023-05-22T00:17:51.530Z,45.30
2023-05-22T00:20:21.101Z,46.33
2023-05-22T00:22:59.154Z,45.90
2023-05-22T00:25:31.992Z,46.78
2023-05-22T00:28:01.404Z,65.47
2023-05-22T00:30:45.594Z,44.92
2023-05-22T00:33:23.997Z,44.72
2023-05-22T00:35:56.884Z,48.22
2023-05-22T00:38:38.866Z,46.35
2023-05-22T00:41:23.977Z,51.65
2023-05-22T00:43:57.719Z,48.03
2023-05-22T00:46:28.263Z,46.75
2023-05-22T00:48:59.437Z,52.22
2023-05-22T00:51:32.599Z,48.50
2023-05-22T00:54:13.635Z,52.08
2023-05-22T00:57:00.803Z,47.22
2023-05-22T00:59:47.523Z,46.65
2023-05-22T01:02:20.478Z,45.75
2023-05-22T01:04:52.083Z,47.67
2023-05-22T01:07:38.236Z,46.40
2023-05-22T01:10:15.253Z,50.60
2023-05-22T01:13:00.924Z,46.90
2023-05-22T01:15:41.814Z,48.08
2023-05-22T01:18:26.102Z,47.88
2023-05-22T01:21:08.762Z,49.25
2023-05-22T01:24:31.238Z,46.78
2023-05-22T01:27:35.450Z,51.78
2023-05-22T01:30:33.214Z,51.13
2023-05-22T01:33:08.438Z,52.15
2023-05-22T01:35:54.824Z,49.00
2023-05-22T01:38:27.422Z,48.20
2023-05-22T01:41:01.211Z,54.58
2023-05-22T01:43:32.737Z,49.10
2023-05-22T01:46:06.903Z,53.72
2023-05-22T01:48:55.612Z,48.45
2023-05-22T01:51:33.942Z,47.85
2023-05-22T01:54:14.879Z,52.20
2023-05-22T01:56:55.977Z,50.67
2023-05-22T01:59:38.760Z,50.30
2023-05-22T02:02:12.479Z,52.13
2023-05-22T02:04:52.941Z,47.95
2023-05-22T02:07:28.640Z,49.50
2023-05-22T02:10:00.639Z,52.13
2023-05-22T02:12:38.688Z,46.15
2023-05-22T02:15:21.576Z,48.00
2023-05-22T02:17:53.458Z,47.55
2023-05-22T02:20:33.036Z,45.92
2023-05-22T02:25:48.042Z,46.20
2023-05-22T02:28:22.595Z,45.75
2023-05-22T02:31:01.299Z,45.90
2023-05-22T02:33:32.898Z,44.65
2023-05-22T02:36:16.903Z,51.45
2023-05-22T02:38:47.966Z,47.13
2023-05-22T02:41:17.536Z,46.20
2023-05-22T02:43:55.679Z,46.17
2023-05-22T02:46:37.593Z,45.40
2023-05-22T02:49:10.151Z,49.03
2023-05-22T02:51:50.760Z,45.97
2023-05-22T02:54:30.597Z,45.72
2023-05-22T02:57:07.425Z,48.75
2023-05-22T02:59:45.004Z,43.80
2023-05-22T03:02:18.034Z,42.80
2023-05-22T03:04:50.671Z,44.53
2023-05-22T03:07:34.970Z,43.70
2023-05-22T03:10:19.884Z,49.10
2023-05-22T03:12:56.468Z,42.78
2023-05-22T03:15:29.879Z,42.45
2023-05-22T03:18:05.051Z,47.47
2023-05-22T03:20:38.070Z,40.90
2023-05-22T03:23:16.225Z,159.57
2023-05-22T03:25:55.663Z,42.20
2023-05-22T03:28:31.866Z,42.63
2023-05-22T03:31:05.884Z,46.17
2023-05-22T03:33:35.518Z,41.30
2023-05-22T03:36:15.952Z,44.85
2023-05-22T03:38:55.915Z,41.15
2023-05-22T03:41:29.849Z,41.20
2023-05-22T03:44:01.564Z,47.05
2023-05-22T03:46:39.683Z,39.58
2023-05-22T03:49:22.148Z,44.88
2023-05-22T03:51:51.799Z,39.90
2023-05-22T03:54:44.024Z,39.97
2023-05-22T03:57:17.559Z,40.60
2023-05-22T03:59:53.266Z,41.97
2023-05-22T04:02:26.718Z,40.42
2023-05-22T04:04:56.744Z,43.38
2023-05-22T04:07:26.532Z,40.78
2023-05-22T04:10:02.914Z,43.35
2023-05-22T04:12:34.365Z,40.97
2023-05-22T04:15:11.168Z,43.88
2023-05-22T04:17:43.026Z,43.53
2023-05-22T04:20:22.330Z,41.75
2023-05-22T04:22:59.062Z,39.83
2023-05-22T04:25:41.902Z,41.53
2023-05-22T04:28:15.698Z,73.20
2023-05-22T04:30:47.230Z,39.42
2023-05-22T04:33:25.283Z,37.97
2023-05-22T04:36:12.450Z,40.75
2023-05-22T04:38:47.974Z,39.65
2023-05-22T04:41:29.506Z,73.72
2023-05-22T04:44:08.710Z,41.78
2023-05-22T04:46:49.370Z,38.90
2023-05-22T04:49:20.775Z,36.60
2023-05-22T04:52:00.390Z,38.28
2023-05-22T04:54:31.592Z,38.40
2023-05-22T04:57:11.015Z,42.08
2023-05-22T04:59:41.665Z,36.42
2023-05-22T05:02:19.503Z,39.25
2023-05-22T05:04:57.763Z,36.17
2023-05-22T05:07:37.791Z,38.08
2023-05-22T05:10:14.899Z,41.13
2023-05-22T05:13:04.290Z,38.65
2023-05-22T05:15:42.162Z,38.22
2023-05-22T05:18:13.205Z,38.78
2023-05-22T05:20:44.378Z,37.72
2023-05-22T05:23:21.776Z,57.55
2023-05-22T05:25:56.807Z,39.25
2023-05-22T05:28:35.930Z,37.55
2023-05-22T05:31:19.463Z,42.97
2023-05-22T05:34:08.635Z,38.95
2023-05-22T05:36:52.461Z,39.30
2023-05-22T05:39:23.619Z,39.88
2023-05-22T05:42:09.615Z,41.05
2023-05-22T05:44:48.411Z,37.38
2023-05-22T05:47:19.331Z,35.90
2023-05-22T05:49:52.838Z,37.83
2023-05-22T05:52:25.375Z,37.47
2023-05-22T05:54:56.584Z,50.45
2023-05-22T05:57:36.201Z,37.28
2023-05-22T06:00:20.515Z,41.13
2023-05-22T06:03:03.102Z,39.63
2023-05-22T06:05:33.010Z,33.28
2023-05-22T06:08:04.509Z,39.72
2023-05-22T06:10:38.976Z,32.22
2023-05-22T06:13:20.911Z,36.85
2023-05-22T06:16:01.838Z,31.70
2023-05-22T06:18:49.188Z,31.48
2023-05-22T06:21:30.662Z,31.38
2023-05-22T06:24:07.232Z,34.80
2023-05-22T06:26:50.627Z,39.70
2023-05-22T06:29:31.581Z,28.92
2023-05-22T06:32:05.782Z,34.45
2023-05-22T06:34:40.133Z,28.90
2023-05-22T06:37:21.064Z,33.78
2023-05-22T06:40:02.502Z,29.45
2023-05-22T06:42:40.089Z,29.25
2023-05-22T06:45:14.652Z,35.38
2023-05-22T06:47:59.067Z,29.20
2023-05-22T06:50:35.918Z,29.77
2023-05-22T06:53:09.022Z,33.88
2023-05-22T06:58:13.831Z,34.00
2023-05-22T07:00:44.825Z,30.20
2023-05-22T07:03:22.021Z,31.27
2023-05-22T07:05:52.395Z,31.42
2023-05-22T07:08:28.431Z,31.10
2023-05-22T07:11:02.058Z,36.50
2023-05-22T07:13:38.116Z,32.30
2023-05-22T07:16:16.082Z,35.97
2023-05-22T07:18:53.198Z,31.38
2023-05-22T07:21:36.429Z,31.27
2023-05-22T07:24:13.242Z,36.63
2023-05-22T07:26:55.170Z,435.02
2023-05-22T07:29:37.440Z,32.00
2023-05-22T07:32:07.940Z,36.80
2023-05-22T07:34:48.993Z,30.50
2023-05-22T07:37:21.883Z,30.85
2023-05-22T07:39:54.171Z,31.50
2023-05-22T07:42:32.189Z,39.97
2023-05-22T07:45:03.452Z,35.97
2023-05-22T07:47:42.525Z,31.35
2023-05-22T07:50:14.628Z,32.10
2023-05-22T07:52:48.846Z,33.07
2023-05-22T07:55:23.902Z,32.13
2023-05-22T07:58:06.876Z,35.17
2023-05-22T08:00:38.654Z,35.45
2023-05-22T08:03:10.207Z,39.58
2023-05-22T08:05:54.608Z,36.83
2023-05-22T08:08:25.499Z,35.65
2023-05-22T08:11:04.226Z,55.58
2023-05-22T08:13:45.879Z,35.70
2023-05-22T08:16:27.219Z,36.05
2023-05-22T08:19:01.451Z,104.47
2023-05-22T08:21:40.392Z,36.92
2023-05-22T08:24:11.833Z,621.53
2023-05-22T08:26:51.261Z,37.67
2023-05-22T08:29:24.074Z,40.22
2023-05-22T08:32:00.844Z,38.50
2023-05-22T08:34:38.215Z,41.13
2023-05-22T08:37:18.981Z,43.05
2023-05-22T08:39:49.335Z,38.25
2023-05-22T08:42:27.887Z,883.58
2023-05-22T08:45:01.253Z,43.97
2023-05-22T08:47:44.384Z,37.13
2023-05-22T08:50:22.887Z,49.42
2023-05-22T08:53:06.346Z,1999.90
2023-05-22T08:55:45.128Z,122.05
2023-05-22T08:58:26.949Z,1999.90
2023-05-22T09:01:03.951Z,43.13
2023-05-22T09:03:37.648Z,43.30
2023-05-22T09:06:11.628Z,50.10
2023-05-22T09:08:54.154Z,42.50
2023-05-22T09:11:28.431Z,42.03
2023-05-22T09:14:17.239Z,47.30
2023-05-22T09:16:53.309Z,41.10
2023-05-22T09:19:25.143Z,44.58
2023-05-22T09:21:58.070Z,361.20
2023-05-22T09:24:31.201Z,43.30
2023-05-22T09:27:17.680Z,860.50
2023-05-22T09:29:52.863Z,862.17
2023-05-22T09:32:29.194Z,43.13
2023-05-22T09:35:12.144Z,49.60
2023-05-22T09:37:43.723Z,46.13
2023-05-22T09:40:30.683Z,46.25
2023-05-22T09:43:03.777Z,50.03
2023-05-22T09:45:38.236Z,680.20
2023-05-22T09:48:13.006Z,42.95
2023-05-22T09:50:45.944Z,36.65
2023-05-22T09:58:51.594Z,34.85
2023-05-22T10:01:25.784Z,34.58
2023-05-22T10:03:57.838Z,39.50
2023-05-22T10:06:37.631Z,36.83
2023-05-22T10:09:20.296Z,39.30
2023-05-22T10:11:55.294Z,33.88
2023-05-22T10:14:29.033Z,34.45
2023-05-22T10:17:11.897Z,39.47
2023-05-22T10:19:52.037Z,34.30
2023-05-22T10:22:34.016Z,91.30
2023-05-22T10:25:10.790Z,41.40
2023-05-22T10:27:45.414Z,37.65
2023-05-22T10:30:33.002Z,37.00
2023-05-22T10:33:18.598Z,42.72
2023-05-22T10:36:01.085Z,1999.90
2023-05-22T10:39:01.395Z,40.53
2023-05-22T10:41:34.558Z,38.15
2023-05-22T10:44:06.852Z,45.63
2023-05-22T10:46:36.194Z,1999.90
2023-05-22T10:49:11.719Z,1999.90
2023-05-22T10:51:44.869Z,53.85
2023-05-22T10:54:14.266Z,53.08
2023-05-22T10:57:01.506Z,53.47
2023-05-22T10:59:48.089Z,674.70
2023-05-22T11:02:31.758Z,61.22
2023-05-22T11:05:40.595Z,1999.90
2023-05-22T11:08:46.603Z,1999.90
2023-05-22T11:11:31.020Z,1999.90
2023-05-22T11:14:07.185Z,1999.90
2023-05-22T11:16:51.514Z,1999.90
2023-05-22T11:19:31.243Z,44.45
2023-05-22T11:22:03.562Z,1999.90
2023-05-22T11:24:41.814Z,1999.90
2023-05-22T11:27:14.962Z,1999.90
2023-05-22T11:29:49.816Z,1999.90
2023-05-22T11:32:23.536Z,1999.90
2023-05-22T11:34:59.531Z,1999.90
2023-05-22T11:37:29.236Z,1999.90
2023-05-22T11:40:20.883Z,1999.90
2023-05-22T11:42:54.643Z,1143.88
2023-05-22T11:45:29.238Z,1999.90
2023-05-22T11:48:00.103Z,1999.90
2023-05-22T11:50:42.724Z,1999.90
2023-05-22T11:53:20.978Z,1999.90
2023-05-22T11:55:56.532Z,1999.90
2023-05-22T11:58:33.095Z,1999.90
2023-05-22T12:01:10.614Z,1999.90
2023-05-22T12:03:52.118Z,1999.90
2023-05-22T12:06:22.477Z,1999.90
2023-05-22T12:08:55.209Z,1999.90
2023-05-22T12:14:04.925Z,1999.90
2023-05-22T12:16:38.048Z,1999.90
2023-05-22T12:19:13.646Z,1999.90
2023-05-22T12:21:47.897Z,1999.90
2023-05-22T12:24:24.451Z,1999.90
2023-05-22T12:27:06.543Z,1999.90
2023-05-22T12:29:37.701Z,447.23
2023-05-22T12:32:13.931Z,173.23
2023-05-22T12:34:55.973Z,101.55
2023-05-22T12:37:41.477Z,65.23
2023-05-22T12:40:13.468Z,70.78
2023-05-22T12:42:56.880Z,983.05
2023-05-22T12:45:28.758Z,46.25
2023-05-22T12:48:02.816Z,52.35
2023-05-22T12:50:35.680Z,44.58
2023-05-22T12:53:08.039Z,51.72
2023-05-22T12:55:44.482Z,62.70
2023-05-22T12:58:15.819Z,47.53
2023-05-22T13:00:49.061Z,48.20
2023-05-22T13:03:19.413Z,50.08
2023-05-22T13:06:08.774Z,47.25
2023-05-22T13:08:46.102Z,46.42
2023-05-22T13:11:24.545Z,44.00
2023-05-22T13:14:06.044Z,46.95
2023-05-22T13:16:48.426Z,86.15
2023-05-22T13:19:20.072Z,767.85
2023-05-22T13:21:52.352Z,969.33
2023-05-22T13:24:25.523Z,648.90
2023-05-22T13:27:00.278Z,71.57
2023-05-22T13:29:37.763Z,46.50
2023-05-22T13:32:08.627Z,67.22
2023-05-22T13:34:49.539Z,60.67
2023-05-22T13:37:23.462Z,1119.72
2023-05-22T13:39:53.125Z,59.38
2023-05-22T13:42:27.736Z,49.15
2023-05-22T13:44:59.992Z,53.35
2023-05-22T13:47:36.651Z,973.88
2023-05-22T13:50:07.791Z,91.07
2023-05-22T13:52:41.391Z,46.45
2023-05-22T13:55:14.622Z,48.45
2023-05-22T13:57:45.131Z,47.33
2023-05-22T14:00:22.893Z,43.10
2023-05-22T14:02:58.144Z,40.33
2023-05-22T14:05:32.074Z,39.22
2023-05-22T14:08:02.984Z,43.25
2023-05-22T14:10:38.505Z,35.70
2023-05-22T14:13:13.303Z,40.17
2023-05-22T14:16:00.760Z,34.33
2023-05-22T14:18:40.419Z,36.50
2023-05-22T14:21:11.168Z,40.40
2023-05-22T14:23:46.554Z,36.22
2023-05-22T14:26:19.899Z,38.45
2023-05-22T14:28:56.037Z,36.50
2023-05-22T14:31:38.553Z,34.92
2023-05-22T14:34:12.457Z,41.83
2023-05-22T14:36:58.936Z,36.33
2023-05-22T14:39:30.123Z,35.13
2023-05-22T14:42:01.786Z,311.83
2023-05-22T14:44:30.978Z,35.80
2023-05-22T14:47:02.040Z,39.95
2023-05-22T14:49:44.117Z,35.40
2023-05-22T14:52:19.381Z,36.13
2023-05-22T14:54:53.743Z,35.83
2023-05-22T15:00:21.796Z,42.13
2023-05-22T15:02:56.265Z,36.78
2023-05-22T15:05:26.786Z,35.53
2023-05-22T15:07:58.945Z,39.83
2023-05-22T15:10:35.791Z,34.77
2023-05-22T15:13:08.644Z,40.97
2023-05-22T15:15:49.795Z,33.70
2023-05-22T15:18:21.425Z,34.22
2023-05-22T15:21:04.742Z,35.97
2023-05-22T15:23:40.707Z,38.47
2023-05-22T15:26:17.089Z,40.45
2023-05-22T15:28:49.599Z,220.23
2023-05-22T15:31:25.289Z,35.17
2023-05-22T15:34:04.025Z,36.08
2023-05-22T15:36:42.769Z,33.28
2023-05-22T15:39:13.830Z,33.17
2023-05-22T15:42:02.327Z,34.65
2023-05-22T15:44:36.834Z,31.00
2023-05-22T15:47:17.230Z,964.17
2023-05-22T15:49:53.038Z,30.40
2023-05-22T15:52:28.314Z,29.95
2023-05-22T15:55:02.692Z,252.20
2023-05-22T15:57:42.886Z,37.78
2023-05-22T16:00:21.809Z,30.55
2023-05-22T16:02:52.754Z,37.65
2023-05-22T16:05:27.702Z,40.50
2023-05-22T16:08:05.220Z,36.28
2023-05-22T16:10:35.171Z,30.33
2023-05-22T16:13:18.204Z,37.55
2023-05-22T16:15:54.318Z,31.15
2023-05-22T16:18:25.349Z,30.52
2023-05-22T16:21:08.341Z,31.45
2023-05-22T16:23:39.600Z,30.58
2023-05-22T16:26:08.602Z,33.70
2023-05-22T16:28:50.444Z,28.70
2023-05-22T16:31:23.410Z,27.85
2023-05-22T16:33:59.436Z,95.72
2023-05-22T16:36:32.140Z,28.33
2023-05-22T16:39:04.232Z,35.25
2023-05-22T16:41:50.552Z,37.78
2023-05-22T16:44:23.647Z,30.45
2023-05-22T16:49:40.650Z,478.23
2023-05-22T16:52:14.016Z,30.25
2023-05-22T16:54:44.693Z,81.05
2023-05-22T16:57:23.235Z,25.75
2023-05-22T16:59:58.163Z,28.42
2023-05-22T17:02:36.439Z,27.45
2023-05-22T17:05:13.596Z,35.83
2023-05-22T17:07:44.250Z,30.58
2023-05-22T17:10:21.292Z,31.20
2023-05-22T17:12:54.940Z,30.48
2023-05-22T17:15:28.298Z,29.88
2023-05-22T17:18:10.776Z,34.42
2023-05-22T17:20:47.635Z,26.95
2023-05-22T17:23:20.603Z,26.25
2023-05-22T17:25:53.321Z,26.48
2023-05-22T17:28:38.332Z,26.00
2023-05-22T17:31:11.374Z,48.58
2023-05-22T17:33:48.902Z,26.85
2023-05-22T17:36:20.235Z,25.60
2023-05-22T17:38:57.113Z,24.38
2023-05-22T17:41:33.264Z,24.55
2023-05-22T17:44:07.094Z,28.88
2023-05-22T17:46:46.620Z,25.02
2023-05-22T17:49:21.081Z,25.10
2023-05-22T17:51:51.785Z,25.13
2023-05-22T17:54:22.356Z,25.08
2023-05-22T17:56:56.379Z,26.40
2023-05-22T17:59:26.869Z,24.13
2023-05-22T18:02:01.399Z,27.13
2023-05-22T18:04:32.970Z,22.88
2023-05-22T18:07:03.596Z,27.58
2023-05-22T18:09:37.840Z,22.50
2023-05-22T18:12:27.880Z,27.35
2023-05-22T18:14:59.825Z,27.52
2023-05-22T18:17:58.792Z,22.42
2023-05-22T18:20:35.767Z,22.73
2023-05-22T18:23:14.194Z,27.65
2023-05-22T18:25:50.661Z,21.05
2023-05-22T18:28:23.796Z,22.20
2023-05-22T18:30:56.310Z,22.70
2023-05-22T18:33:30.345Z,66.22
2023-05-22T18:36:10.776Z,26.90
2023-05-22T18:38:48.870Z,21.83
2023-05-22T18:41:24.492Z,40.65
2023-05-22T18:44:01.717Z,23.58
2023-05-22T18:46:44.433Z,24.83
2023-05-22T18:49:31.346Z,22.77
2023-05-22T18:52:13.919Z,26.27
2023-05-22T18:54:45.293Z,22.90
2023-05-22T18:57:24.601Z,22.33
2023-05-22T19:00:03.531Z,28.65
2023-05-22T19:02:39.840Z,21.17
2023-05-22T19:05:21.850Z,24.33
2023-05-22T19:08:02.111Z,21.08
2023-05-22T19:10:43.333Z,20.88
2023-05-22T19:13:16.364Z,21.13
2023-05-22T19:15:52.442Z,22.02
2023-05-22T19:18:27.009Z,22.20
2023-05-22T19:21:07.050Z,25.50
2023-05-22T19:23:42.004Z,28.17
2023-05-22T19:26:19.940Z,24.45
2023-05-22T19:28:56.627Z,24.90
2023-05-22T19:31:25.957Z,25.38
2023-05-22T19:33:55.721Z,35.60
2023-05-22T19:36:48.764Z,129.00
2023-05-22T19:39:20.881Z,25.25
2023-05-22T19:41:59.965Z,26.15
2023-05-22T19:44:40.411Z,25.08
2023-05-22T19:47:20.295Z,29.58
2023-05-22T19:49:52.526Z,26.00
2023-05-22T19:52:27.794Z,24.83
2023-05-22T19:55:06.930Z,351.05
2023-05-22T19:57:50.185Z,22.25
2023-05-22T20:00:31.685Z,22.30
2023-05-22T20:03:17.124Z,27.13
2023-05-22T20:05:54.937Z,20.75
2023-05-22T20:08:28.395Z,22.73
2023-05-22T20:11:00.886Z,25.90
2023-05-22T20:13:33.958Z,21.10
2023-05-22T20:16:11.835Z,24.85
2023-05-22T20:18:55.145Z,21.15
2023-05-22T20:21:40.185Z,20.73
2023-05-22T20:24:32.210Z,24.52
2023-05-22T20:27:15.392Z,28.98
2023-05-22T20:32:28.817Z,23.02
2023-05-22T20:35:09.368Z,28.50
2023-05-22T20:37:42.489Z,25.77
2023-05-22T20:40:26.964Z,24.42
2023-05-22T20:42:58.291Z,29.05
2023-05-22T20:45:31.455Z,24.35
2023-05-22T20:48:03.449Z,31.00
2023-05-22T20:50:44.531Z,26.92
2023-05-22T20:53:21.022Z,27.77
2023-05-22T20:56:10.185Z,27.30
2023-05-22T20:58:42.083Z,27.52
2023-05-22T21:01:21.057Z,28.70
2023-05-22T21:04:01.365Z,28.17
2023-05-22T21:06:33.280Z,28.48
2023-05-22T21:09:02.700Z,33.60
2023-05-22T21:11:49.887Z,30.70
2023-05-22T21:14:22.719Z,28.63
2023-05-22T21:16:58.416Z,29.30
2023-05-22T21:19:29.046Z,29.88
2023-05-22T21:22:12.677Z,30.73
2023-05-22T21:24:54.342Z,26.30
2023-05-22T21:27:39.742Z,25.50
2023-05-22T21:30:18.780Z,29.85
2023-05-22T21:32:54.565Z,25.38
2023-05-22T21:35:35.882Z,25.15
2023-05-22T21:38:13.775Z,31.27
2023-05-22T21:40:47.743Z,25.00
2023-05-22T21:43:23.610Z,23.75
2023-05-22T21:45:53.551Z,24.02
2023-05-22T21:48:24.081Z,24.08
2023-05-22T21:50:57.996Z,24.90
2023-05-22T21:53:28.341Z,22.88
2023-05-22T21:55:58.021Z,26.98
2023-05-22T21:58:37.593Z,22.65
2023-05-22T22:01:11.079Z,26.23
2023-05-22T22:03:56.723Z,21.30
2023-05-22T22:06:32.775Z,20.88
2023-05-22T22:09:06.721Z,26.15
2023-05-22T22:11:44.777Z,21.05
2023-05-22T22:14:27.282Z,20.27
2023-05-22T22:17:06.250Z,24.55
2023-05-22T22:19:52.569Z,20.73
2023-05-22T22:22:30.216Z,21.52
2023-05-22T22:25:11.979Z,25.83
2023-05-22T22:27:47.670Z,21.23
2023-05-22T22:30:28.174Z,21.27
2023-05-22T22:33:15.254Z,27.90
2023-05-22T22:38:27.028Z,21.15
2023-05-22T22:41:02.131Z,24.17
2023-05-22T22:43:35.854Z,20.70
2023-05-22T22:46:18.119Z,27.05
2023-05-22T22:48:51.239Z,21.50
2023-05-22T22:51:34.952Z,21.30
2023-05-22T22:54:05.327Z,25.67
2023-05-22T22:56:43.779Z,20.90
2023-05-22T22:59:14.897Z,20.92
2023-05-22T23:01:46.743Z,20.52
2023-05-22T23:04:23.005Z,20.33
2023-05-22T23:06:53.689Z,20.38
2023-05-22T23:09:23.486Z,20.17
2023-05-22T23:11:54.264Z,21.15
2023-05-22T23:14:24.955Z,20.35
2023-05-22T23:17:06.299Z,21.83
2023-05-22T23:19:37.897Z,20.40
2023-05-22T23:22:08.997Z,25.45
2023-05-22T23:24:45.557Z,21.10
2023-05-22T23:27:19.961Z,20.73
2023-05-22T23:29:49.087Z,22.00
2023-05-22T23:32:32.649Z,21.80
2023-05-22T23:35:07.800Z,26.48
2023-05-22T23:37:41.302Z,21.25
2023-05-22T23:40:15.450Z,25.90
2023-05-22T23:42:47.551Z,21.50
2023-05-22T23:45:19.995Z,21.30
2023-05-22T23:47:54.183Z,20.88
2023-05-22T23:50:32.264Z,20.90
2023-05-22T23:53:12.746Z,25.70
2023-05-22T23:55:50.560Z,21.05
2023-05-22T23:58:21.924Z,19.88
